Fure West — OZ2100 — position and weather

sailwx.info

Track history (hours):
 
Tides and Currents Weather Stations Pressure Air Temp Water Temp Dewpoint Dewpoint Depression Visibility Wind Speed Wind Dir Waves Ship Positions

Fure West

Last reported at 2015-Jul-29 23:33 UTC. Time now 2015-Jul-30 20:14 UTC.
Position N 53°17' W 002°52'.

Length 144 m; draft 6.5 m.

Type: Tanker. MMSI: 231775000.

Date/timePositionNaut miles runAvg speedWind from/ knotsBaromVisibWave heightAir tempDewpointWater temp
2015-Jul-29 23:33N 53°17' W 002°52'3 3.3
2015-Jul-29 22:33N 53°19' W 002°57'2 1.7
2015-Jul-29 21:33N 53°21' W 002°58'9 9.0
2015-Jul-29 20:33N 53°29' W 003°05'10 9.9
2015-Jul-29 19:33N 53°31' W 003°21'3 2.9
2015-Jul-29 18:28N 53°29' W 003°25'0 0.0
2015-Jul-29 17:31N 53°29' W 003°25'0 0.0
2015-Jul-29 16:28N 53°29' W 003°25'0 0.0
2015-Jul-29 15:31N 53°29' W 003°25'0 0.0
2015-Jul-29 14:28N 53°29' W 003°25'0 0.1
2015-Jul-29 13:31N 53°29' W 003°26'0 0.0
2015-Jul-29 12:31N 53°29' W 003°26'0 0.4
2015-Jul-29 11:33N 53°29' W 003°26'1010.1
2015-Jul-29 10:33N 53°31' W 003°43'1211.7
2015-Jul-29 09:33N 53°31' W 004°03'380 9.9
2015-Jul-27 19:11N 47°11' W 003°58'6911.4
2015-Jul-27 13:09N 46°32' W 002°34'610.9
2015-Jul-27 12:33N 46°29' W 002°27'1110.6
2015-Jul-27 11:33N 46°23' W 002°14'1110.9
2015-Jul-27 10:33N 46°17' W 002°01'1111.4
2015-Jul-27 09:33N 46°10' W 001°47'1111.4
2015-Jul-27 08:33N 46°07' W 001°31'1110.9
2015-Jul-27 07:33N 46°07' W 001°15'2 2.3
2015-Jul-27 06:33N 46°09' W 001°15'0 0.0
2015-Jul-26 02:34N 46°09' W 001°15'5 4.5
2015-Jul-26 01:31N 46°05' W 001°15'0 0.1
2015-Jul-26 00:31N 46°05' W 001°15'0 0.1
2015-Jul-25 23:31N 46°04' W 001°14'0 0.0
2015-Jul-25 22:31N 46°05' W 001°14'8 8.5
2015-Jul-25 21:33N 46°06' W 001°26'1313.1
2015-Jul-25 20:33N 46°08' W 001°45'1512.9
2015-Jul-25 19:23N 45°53' W 001°52'1112.8
2015-Jul-25 18:33N 45°43' W 001°57'  
2015-Jul-22 13:20N 49°52' W 003°15'2111.0
2015-Jul-22 11:27N 50°01' W 002°46'11312.6
2015-Jul-22 02:32N 50°30' E 000°05'1111.4
2015-Jul-22 01:33N 50°33' E 000°21'1110.5
2015-Jul-22 00:33N 50°36' E 000°37'1110.6
2015-Jul-21 23:33N 50°42' E 000°51'1412.0
2015-Jul-21 22:25N 50°50' E 001°09'1113.3
2015-Jul-21 21:33N 50°58' E 001°22'1413.6
2015-Jul-21 20:33N 51°08' E 001°37'1212.3
2015-Jul-21 19:34N 51°17' E 001°49'1111.3
2015-Jul-21 18:34N 51°27' E 001°59'1110.8
2015-Jul-21 17:34N 51°35' E 002°11'1110.6
2015-Jul-21 16:33N 51°42' E 002°23'1010.4
2015-Jul-21 15:34N 51°49' E 002°35'1211.6
2015-Jul-21 14:34N 51°47' E 002°54'1212.0
2015-Jul-21 13:32N 51°47' E 003°14'3 2.5
2015-Jul-21 12:28N 51°47' E 003°18'0 0.0
2015-Jul-21 10:31N 51°47' E 003°18'0 0.1
2015-Jul-21 09:22N 51°47' E 003°18'0 0.0
2015-Jul-21 01:25N 51°47' E 003°18'0 0.0
2015-Jul-20 16:25N 51°47' E 003°18'0 0.0
2015-Jul-20 07:19N 51°47' E 003°18'0 0.0
2015-Jul-20 06:28N 51°47' E 003°18'0 0.0
2015-Jul-20 05:22N 51°47' E 003°18'0 0.0
2015-Jul-20 04:19N 51°47' E 003°18'0 0.0
2015-Jul-20 03:31N 51°47' E 003°18'0 0.0
2015-Jul-20 02:28N 51°47' E 003°18'0 0.1
2015-Jul-20 01:28N 51°47' E 003°18'  
Track history (hours):
 
Tides and Currents Weather Stations Pressure Air Temp Water Temp Dewpoint Dewpoint Depression Visibility Wind Speed Wind Dir Waves Ship Positions

Fure West

Last reported at 2015-Jul-29 23:33 UTC. Time now 2015-Jul-30 20:14 UTC.
Position N 53°17' W 002°52'.

Length 144 m; draft 6.5 m.

Type: Tanker. MMSI: 231775000.

Date/timePositionNaut miles runAvg speedWind from/ knotsBaromVisibWave heightAir tempDewpointWater temp
2015-Jul-29 23:33N 53°17' W 002°52'3 3.3
2015-Jul-29 22:33N 53°19' W 002°57'2 1.7
2015-Jul-29 21:33N 53°21' W 002°58'9 9.0
2015-Jul-29 20:33N 53°29' W 003°05'10 9.9
2015-Jul-29 19:33N 53°31' W 003°21'3 2.9
2015-Jul-29 18:28N 53°29' W 003°25'0 0.0
2015-Jul-29 17:31N 53°29' W 003°25'0 0.0
2015-Jul-29 16:28N 53°29' W 003°25'0 0.0
2015-Jul-29 15:31N 53°29' W 003°25'0 0.0
2015-Jul-29 14:28N 53°29' W 003°25'0 0.1
2015-Jul-29 13:31N 53°29' W 003°26'0 0.0
2015-Jul-29 12:31N 53°29' W 003°26'0 0.4
2015-Jul-29 11:33N 53°29' W 003°26'1010.1
2015-Jul-29 10:33N 53°31' W 003°43'1211.7
2015-Jul-29 09:33N 53°31' W 004°03'380 9.9
2015-Jul-27 19:11N 47°11' W 003°58'6911.4
2015-Jul-27 13:09N 46°32' W 002°34'610.9
2015-Jul-27 12:33N 46°29' W 002°27'1110.6
2015-Jul-27 11:33N 46°23' W 002°14'1110.9
2015-Jul-27 10:33N 46°17' W 002°01'1111.4
2015-Jul-27 09:33N 46°10' W 001°47'1111.4
2015-Jul-27 08:33N 46°07' W 001°31'1110.9
2015-Jul-27 07:33N 46°07' W 001°15'2 2.3
2015-Jul-27 06:33N 46°09' W 001°15'0 0.0
2015-Jul-26 02:34N 46°09' W 001°15'5 4.5
2015-Jul-26 01:31N 46°05' W 001°15'0 0.1
2015-Jul-26 00:31N 46°05' W 001°15'0 0.1
2015-Jul-25 23:31N 46°04' W 001°14'0 0.0
2015-Jul-25 22:31N 46°05' W 001°14'8 8.5
2015-Jul-25 21:33N 46°06' W 001°26'1313.1
2015-Jul-25 20:33N 46°08' W 001°45'1512.9
2015-Jul-25 19:23N 45°53' W 001°52'1112.8
2015-Jul-25 18:33N 45°43' W 001°57'  
2015-Jul-22 13:20N 49°52' W 003°15'2111.0
2015-Jul-22 11:27N 50°01' W 002°46'11312.6
2015-Jul-22 02:32N 50°30' E 000°05'1111.4
2015-Jul-22 01:33N 50°33' E 000°21'1110.5
2015-Jul-22 00:33N 50°36' E 000°37'1110.6
2015-Jul-21 23:33N 50°42' E 000°51'1412.0
2015-Jul-21 22:25N 50°50' E 001°09'1113.3
2015-Jul-21 21:33N 50°58' E 001°22'1413.6
2015-Jul-21 20:33N 51°08' E 001°37'1212.3
2015-Jul-21 19:34N 51°17' E 001°49'1111.3
2015-Jul-21 18:34N 51°27' E 001°59'1110.8
2015-Jul-21 17:34N 51°35' E 002°11'1110.6
2015-Jul-21 16:33N 51°42' E 002°23'1010.4
2015-Jul-21 15:34N 51°49' E 002°35'1211.6
2015-Jul-21 14:34N 51°47' E 002°54'1212.0
2015-Jul-21 13:32N 51°47' E 003°14'3 2.5
2015-Jul-21 12:28N 51°47' E 003°18'0 0.0
2015-Jul-21 10:31N 51°47' E 003°18'0 0.1
2015-Jul-21 09:22N 51°47' E 003°18'0 0.0
2015-Jul-21 01:25N 51°47' E 003°18'0 0.0
2015-Jul-20 16:25N 51°47' E 003°18'0 0.0
2015-Jul-20 07:19N 51°47' E 003°18'0 0.0
2015-Jul-20 06:28N 51°47' E 003°18'0 0.0
2015-Jul-20 05:22N 51°47' E 003°18'0 0.0
2015-Jul-20 04:19N 51°47' E 003°18'0 0.0
2015-Jul-20 03:31N 51°47' E 003°18'0 0.0
2015-Jul-20 02:28N 51°47' E 003°18'0 0.1
2015-Jul-20 01:28N 51°47' E 003°18'  

Dump ship's entire track history